Aérodrome :
LOGIN :

S'inscrire | Disclaimer

   EN    FR    IT 

 










Légende :    VFR   VFR Marginal   IFR   IFR Intensif   IFR Très Intensif
Visi : 
Plafond : 
>= 8 km
>= 3000ft
5 à 8 km
1000 à 3000 ft
1500m à 5 km
500 à 1000 ft
800 à 1500m
200 à 500 ft
< 800m
< 200 ft
Symboles :   Orages  Brouillard  Fortes neiges  Fortes précipitations  Vent > 20 kt
SIGMETs :   Divers  Orages  Givrage  Turbulence  Onde Orograph.  Cendres Volcan.






- Altitude de l'aérodrome : 203 ft
- Code IATA : XMJ


LFBM - Mont-De-Marsan

DERNIER METAR :
  • 131000Z AUTO 36004KT CAVOK 10/07 Q1011 NOSIG

METARs EXPIRÉS :
  • 130930Z AUTO 32003KT CAVOK 09/08 Q1011 NOSIG
  • 130900Z AUTO VRB03KT 9999 FEW010 BKN056 OVC210 09/07 Q1010 NOSIG
  • 130830Z AUTO 34005KT CAVOK 09/09 Q1010 NOSIG
  • 130800Z AUTO 27003KT CAVOK 08/08 Q1010 NOSIG
  • 130730Z AUTO 27002KT 9000 2600 -RA NSC 08/08 Q1009 NOSIG

TAF TAF LFBM
Valide du 13 à 09h jusqu'au 14 à 09h UTC


130800Z 1309/1409 27005KT CAVOK
BECMG 1321/1323 27010G20KT 4000 RA BKN007 OVC025TCU



MET'MAP, la Météo Aéronautique d'un coup d'oeil ! - Copyright ORBIFLY Décembre 2007 - Disclaimer

ORBIFLY MET'MAP TEAM :

Programmation & Développement : Alexandra Zaïnal
Conception & Développement : Baudouin d'Aumeries
Co-Programmation & Développement : Marc-Olivier Méhu
Soutien technique & logistique : Manuel Goepfert

Contact : metmap@orbifly.com




SOURCES & CREDITS :

   NOAA